Airfield :
LOGIN :

Register | Disclaimer

   EN    FR    IT 

 










Legend :    VFR   Marginal VFR   IFR   Intensive IFR   Very Intensive IFR
Visi :
Ceiling :
>= 8 km
>= 3000ft
5 to 8 km
1000 to 3000 ft
1500m to 5 km
500 to 1000 ft
800 to 1500m
200 to 500 ft
< 800m
< 200 ft
Symbols :   Thunderstorms  Fog  Heavy snow  Heavy precipitations  Wind > 20 kt
SIGMETs :     Misc.  Thunderstorms  Icing  Turbulence  Mountain Waves  Volcanic Ashes






- Airport Elevation : 194 ft


EBCV - Chièvres

CURRENT METAR :
  • 200255Z AUTO 19017KT 9999 OVC051/// 07/04 Q1002 BLU

EXPIRED METARs :
  • 200225Z AUTO 19017KT 9999 OVC055/// 07/05 Q1002 BLU
  • 200218Z AUTO 19018KT 9999 OVC054/// 07/05 Q1002 BLU
  • 200207Z AUTO 20018KT 4100 OVC050/// 07/05 Q1003 GRN
  • 200151Z AUTO 20019KT 2800 OVC045/// 07/04 Q1003 YLO
  • 200125Z AUTO 20017KT 9999 FEW021/// BKN046/// OVC075/// 07/04 Q1003 BLU
  • 200103Z AUTO 20020KT 9999 SCT018/// SCT047/// OVC070/// 07/04 Q1003 WHT
  • 200055Z AUTO 20019KT 9999 FEW018/// SCT046/// OVC069/// 07/04 Q1003 BLU
  • 200046Z AUTO 20020KT 9999 FEW018/// BKN042/// OVC069/// 07/04 Q1003 BLU
  • 200025Z AUTO 20017KT 9999 SCT018/// BKN041/// 07/04 Q1004 WHT

TAF TAF EBCV
Valid from the 19 at 19:00 until the 20 at 07:00 UTC


191613Z 1919/2007 21012G22KT 9999 BKN013 BKN095
TEMPO 2004/2007 20015G25KT 8000 -RA BKN040 OVC060
TEMPO 2005/2007 19017G28KT 9999 NSW BKN075 BY EBWM



MET'MAP, your aeronautical weather chart ! - Copyright ORBIFLY December 2007 - Disclaimer

ORBIFLY MET'MAP TEAM :

Programming & Development : Alexandra Zaïnal
Concept & original design : Baudouin d'Aumeries
Assistance for programming : Marc-Olivier Méhu
Technical & hardware support : Manuel Goepfert

Contact : metmap@orbifly.com




SOURCES & CREDITS :

   NOAA